Time;durP1;ratioP1;P1;durP2;ratioP2;P2;SDS_P1;SDS_P2;PMS_P1;PMS_P2;Temp;Humidity;BMP_temperature;BMP_pressure;BME280_temperature;BME280_humidity;BME280_pressure;Samples;Min_cycle;Max_cycle;Signal;HPM_P1;HPM_P2
2023/09/09 00:01:33;;;;;;;;;;;;;;;32.01;28.64;98633.72;5091047;28;19920;-86
2023/09/09 00:03:59;;;;;;;;;;;;;;;32.18;27.97;98637.00;5090866;28;19920;-86
2023/09/09 00:06:25;;;;;;;;;;;;;;;32.22;28.04;98633.97;5092702;28;19927;-86
2023/09/09 00:08:51;;;;;;;;;;;;;;;32.40;28.14;98625.41;5086327;28;19920;-87
2023/09/09 00:11:17;;;;;;;;;;;;;;;32.35;28.04;98631.75;5092250;28;20011;-86
2023/09/09 00:13:45;;;;;;;;;;;;;;;32.40;27.89;98628.25;5076559;28;20374;-86
2023/09/09 00:16:11;;;;;;;;;;;;;;;32.43;27.52;98630.13;5072754;28;19916;-86
2023/09/09 00:18:38;;;;;;;;;;;;;;;32.37;27.42;98634.91;5093675;28;19920;-86
2023/09/09 00:21:05;;;;;;;;;;;;;;;32.39;27.50;98627.47;5088269;28;19999;-86
2023/09/09 00:23:31;;;;;;;;;;;;;;;32.39;27.52;98621.78;5098220;28;20321;-86
2023/09/09 00:25:57;;;;;;;;;;;;;;;32.16;28.09;98622.44;5094465;28;19999;-86
2023/09/09 00:28:23;;;;;;;;;;;;;;;32.02;28.23;98620.28;5091328;28;20288;-86
2023/09/09 00:30:49;;;;;;;;;;;;;;;32.11;27.69;98616.66;5092175;28;19927;-86
2023/09/09 00:33:16;;;;;;;;;;;;;;;32.21;27.49;98618.22;5091629;28;19920;-85
2023/09/09 00:35:42;;;;;;;;;;;;;;;32.11;28.39;98611.75;5092490;28;19920;-85
2023/09/09 00:38:08;;;;;;;;;;;;;;;32.02;28.54;98617.47;5087822;28;20028;-85
2023/09/09 00:40:35;;;;;;;;;;;;;;;32.07;28.79;98611.91;5090207;28;19931;-85
2023/09/09 00:43:01;;;;;;;;;;;;;;;32.20;28.31;98614.56;5082592;28;20015;-86
2023/09/09 00:45:27;;;;;;;;;;;;;;;32.30;28.36;98618.94;5085650;28;20387;-85
2023/09/09 00:47:54;;;;;;;;;;;;;;;32.37;27.49;98609.31;5093058;28;19920;-86
2023/09/09 00:50:20;;;;;;;;;;;;;;;32.01;28.04;98613.03;5090621;28;20378;-86
2023/09/09 00:52:49;;;;;;;;;;;;;;;32.01;27.89;98610.19;5092420;28;19927;-86
2023/09/09 00:55:15;;;;;;;;;;;;;;;31.79;27.87;98618.06;5082246;28;20011;-86
2023/09/09 00:57:41;;;;;;;;;;;;;;;31.78;27.91;98610.81;5068648;28;19924;-86
2023/09/09 01:00:10;;;;;;;;;;;;;;;31.91;27.70;98612.22;5093454;28;19920;-86
2023/09/09 01:02:37;;;;;;;;;;;;;;;32.01;27.29;98618.72;5088515;28;20345;-86
2023/09/09 01:05:03;;;;;;;;;;;;;;;31.99;27.67;98605.00;5091958;28;19920;-86
2023/09/09 01:07:40;;;;;;;;;;;;;;;32.02;27.12;98614.63;5092791;28;19924;-86
2023/09/09 01:10:06;;;;;;;;;;;;;;;31.97;27.17;98618.84;5090738;28;20006;-86
2023/09/09 01:12:32;;;;;;;;;;;;;;;31.78;27.43;98619.34;5090115;28;19927;-86
2023/09/09 01:14:58;;;;;;;;;;;;;;;31.82;28.21;98617.91;5089231;28;20072;-85
2023/09/09 01:17:25;;;;;;;;;;;;;;;31.80;28.20;98613.97;5090005;28;19924;-85
2023/09/09 01:19:53;;;;;;;;;;;;;;;31.81;27.63;98624.84;5088187;28;19920;-86
2023/09/09 01:22:19;;;;;;;;;;;;;;;31.68;28.41;98617.75;5089509;28;20011;-85
2023/09/09 01:24:45;;;;;;;;;;;;;;;31.67;28.09;98616.97;5090480;28;19924;-86
2023/09/09 01:27:11;;;;;;;;;;;;;;;31.70;27.91;98620.91;5092355;28;19920;-86
2023/09/09 01:29:37;;;;;;;;;;;;;;;31.80;27.86;98623.28;5089953;28;19931;-86
2023/09/09 01:32:03;;;;;;;;;;;;;;;31.67;27.82;98616.97;5087980;28;19920;-86
2023/09/09 01:34:29;;;;;;;;;;;;;;;31.71;27.72;98628.16;5089184;28;20288;-85
2023/09/09 01:36:55;;;;;;;;;;;;;;;31.76;27.03;98614.13;5085947;28;20114;-86
2023/09/09 01:39:21;;;;;;;;;;;;;;;31.65;27.04;98624.41;5089212;28;19963;-86
2023/09/09 01:41:47;;;;;;;;;;;;;;;31.25;28.02;98622.41;5090449;28;20014;-86
2023/09/09 01:44:13;;;;;;;;;;;;;;;31.05;28.15;98619.22;5085096;28;19924;-85
2023/09/09 01:46:39;;;;;;;;;;;;;;;31.17;28.19;98617.53;5084784;28;20053;-85
2023/09/09 01:49:05;;;;;;;;;;;;;;;31.27;28.01;98619.13;5087320;28;19975;-85
2023/09/09 01:51:32;;;;;;;;;;;;;;;31.12;28.61;98616.09;5090041;28;19916;-86
2023/09/09 01:53:58;;;;;;;;;;;;;;;31.20;28.45;98617.34;5058053;28;19924;-86
2023/09/09 01:56:24;;;;;;;;;;;;;;;31.07;28.67;98604.56;5089208;28;19920;-85
2023/09/09 01:58:50;;;;;;;;;;;;;;;30.93;28.53;98605.97;5092624;28;19920;-85
2023/09/09 02:01:16;;;;;;;;;;;;;;;31.24;28.02;98609.50;5074814;28;19927;-85
2023/09/09 02:03:42;;;;;;;;;;;;;;;31.20;28.50;98605.25;5088725;28;19920;-86
2023/09/09 02:06:08;;;;;;;;;;;;;;;31.21;28.90;98610.44;5083379;28;19920;-85
2023/09/09 02:08:34;;;;;;;;;;;;;;;31.47;28.36;98610.97;5089313;28;20225;-85
2023/09/09 02:11:00;;;;;;;;;;;;;;;31.59;27.65;98600.72;5091433;28;19920;-85
2023/09/09 02:13:26;;;;;;;;;;;;;;;31.52;27.96;98607.50;5093047;28;19920;-85
2023/09/09 02:15:52;;;;;;;;;;;;;;;31.68;27.93;98606.41;5096889;28;20302;-85
2023/09/09 02:18:18;;;;;;;;;;;;;;;31.57;28.10;98600.41;5094646;28;19927;-85
2023/09/09 02:20:44;;;;;;;;;;;;;;;31.63;27.76;98604.19;5093319;28;19939;-85
2023/09/09 02:23:10;;;;;;;;;;;;;;;31.67;27.03;98605.59;5092727;28;19927;-85
2023/09/09 02:25:37;;;;;;;;;;;;;;;31.32;28.00;98607.16;5089183;28;19970;-85
2023/09/09 02:28:03;;;;;;;;;;;;;;;31.28;28.02;98603.66;5095086;28;19920;-85
2023/09/09 02:30:30;;;;;;;;;;;;;;;31.41;28.16;98618.50;5095275;28;19920;-85
2023/09/09 02:32:56;;;;;;;;;;;;;;;31.32;28.13;98613.59;5093971;28;19920;-85
2023/09/09 02:35:22;;;;;;;;;;;;;;;31.14;28.95;98619.25;5093721;28;19920;-85
2023/09/09 02:37:48;;;;;;;;;;;;;;;31.25;29.51;98618.81;5093729;28;19920;-85
2023/09/09 02:40:14;;;;;;;;;;;;;;;31.42;29.03;98618.06;5072411;28;19924;-85
2023/09/09 02:42:40;;;;;;;;;;;;;;;31.31;29.08;98612.03;5095165;28;19920;-85
2023/09/09 02:45:07;;;;;;;;;;;;;;;31.48;28.56;98621.06;5096383;28;19924;-85
2023/09/09 02:47:33;;;;;;;;;;;;;;;31.47;28.42;98613.00;5094393;28;20864;-85
2023/09/09 02:49:59;;;;;;;;;;;;;;;31.46;28.30;98605.78;5091137;28;19938;-85
2023/09/09 02:52:25;;;;;;;;;;;;;;;31.27;28.39;98613.44;5093530;28;20276;-85
2023/09/09 02:54:51;;;;;;;;;;;;;;;31.21;27.85;98613.28;5088214;28;19928;-85
2023/09/09 02:57:17;;;;;;;;;;;;;;;30.93;28.26;98611.63;5073012;28;19924;-85
2023/09/09 02:59:43;;;;;;;;;;;;;;;30.58;28.77;98613.03;5076182;28;19920;-84
2023/09/09 03:02:09;;;;;;;;;;;;;;;30.85;29.04;98609.53;5076552;28;20010;-84
2023/09/09 03:04:35;;;;;;;;;;;;;;;30.91;28.39;98599.97;5094099;28;20397;-85
2023/09/09 03:07:02;;;;;;;;;;;;;;;30.91;28.15;98611.31;5090128;28;19959;-85
2023/09/09 03:09:29;;;;;;;;;;;;;;;30.81;28.16;98615.34;5093685;28;19920;-85
2023/09/09 03:11:56;;;;;;;;;;;;;;;31.10;27.99;98614.97;5094326;28;19927;-85
2023/09/09 03:14:22;;;;;;;;;;;;;;;31.04;28.20;98608.38;5090896;28;20398;-84
2023/09/09 03:16:48;;;;;;;;;;;;;;;31.15;28.42;98618.00;5086650;28;19924;-85
2023/09/09 03:19:14;;;;;;;;;;;;;;;31.16;28.39;98621.59;5089176;28;19985;-85
2023/09/09 03:21:40;;;;;;;;;;;;;;;31.21;28.44;98615.31;5095738;28;20394;-85
2023/09/09 03:24:06;;;;;;;;;;;;;;;31.29;28.57;98613.75;5089162;28;19920;-85
2023/09/09 03:26:32;;;;;;;;;;;;;;;31.26;28.14;98612.66;5090812;28;20018;-85
2023/09/09 03:28:59;;;;;;;;;;;;;;;30.94;27.93;98615.25;5094377;28;19920;-85
2023/09/09 03:31:25;;;;;;;;;;;;;;;30.58;28.58;98607.38;5092705;28;20324;-85
2023/09/09 03:33:52;;;;;;;;;;;;;;;30.77;28.07;98607.00;5093681;28;19973;-85
2023/09/09 03:36:17;;;;;;;;;;;;;;;30.98;28.19;98605.34;5093463;28;19928;-85
2023/09/09 03:38:44;;;;;;;;;;;;;;;31.03;27.80;98606.78;5093618;28;20387;-87
2023/09/09 03:41:10;;;;;;;;;;;;;;;31.05;28.36;98602.22;5090953;28;19952;-85
2023/09/09 03:43:36;;;;;;;;;;;;;;;31.10;28.34;98603.63;5071699;28;20445;-85
2023/09/09 03:46:02;;;;;;;;;;;;;;;31.22;27.81;98606.34;5093550;28;19959;-85
2023/09/09 03:48:28;;;;;;;;;;;;;;;31.36;27.22;98602.91;5090927;28;19916;-84
2023/09/09 03:50:58;;;;;;;;;;;;;;;31.38;27.58;98608.88;5095257;28;19920;-85
2023/09/09 03:53:24;;;;;;;;;;;;;;;31.21;28.05;98609.63;5094606;28;20018;-85
2023/09/09 03:55:50;;;;;;;;;;;;;;;31.16;28.17;98610.25;5094970;28;20010;-85
2023/09/09 03:58:17;;;;;;;;;;;;;;;31.21;28.46;98612.47;5093697;28;19969;-85
2023/09/09 04:00:46;;;;;;;;;;;;;;;31.24;28.37;98623.69;5089654;28;19962;-85
2023/09/09 04:03:13;;;;;;;;;;;;;;;31.31;27.95;98625.44;5074360;28;19928;-85
2023/09/09 04:05:39;;;;;;;;;;;;;;;31.36;27.93;98621.97;5091191;28;20375;-85
2023/09/09 04:08:09;;;;;;;;;;;;;;;31.30;27.52;98616.13;5094601;28;19920;-85
2023/09/09 04:10:38;;;;;;;;;;;;;;;31.25;27.24;98630.16;5088397;28;19975;-85
2023/09/09 04:13:04;;;;;;;;;;;;;;;31.17;27.28;98626.03;5093781;28;20026;-85
2023/09/09 04:15:30;;;;;;;;;;;;;;;31.25;28.15;98619.56;5085852;28;20371;-85
2023/09/09 04:17:56;;;;;;;;;;;;;;;31.41;27.23;98632.72;5091480;28;19986;-85
2023/09/09 04:20:22;;;;;;;;;;;;;;;31.37;27.22;98626.38;5094109;28;19927;-84
2023/09/09 04:22:47;;;;;;;;;;;;;;;31.37;27.11;98632.03;5093002;28;19920;-85
2023/09/09 04:25:14;;;;;;;;;;;;;;;31.45;26.83;98622.00;5092503;28;19942;-85
2023/09/09 04:27:40;;;;;;;;;;;;;;;31.41;26.58;98624.19;5089842;28;19920;-85
2023/09/09 04:30:06;;;;;;;;;;;;;;;31.37;26.95;98629.22;5093674;28;19912;-84
2023/09/09 04:32:34;;;;;;;;;;;;;;;31.44;27.11;98636.69;5094295;28;19944;-85
2023/09/09 04:35:00;;;;;;;;;;;;;;;31.34;27.91;98633.00;5088402;28;19912;-86
2023/09/09 04:37:27;;;;;;;;;;;;;;;31.46;27.06;98632.09;5063009;28;19935;-84
2023/09/09 04:39:54;;;;;;;;;;;;;;;31.61;26.62;98637.94;5091790;28;19969;-85
2023/09/09 04:42:21;;;;;;;;;;;;;;;31.70;26.61;98633.06;5092467;28;19959;-84
2023/09/09 04:44:47;;;;;;;;;;;;;;;31.50;26.57;98634.78;5090161;28;19971;-85
2023/09/09 04:47:13;;;;;;;;;;;;;;;31.70;26.78;98633.06;5088608;28;19955;-85
2023/09/09 04:49:39;;;;;;;;;;;;;;;31.84;26.20;98637.31;5078165;28;20003;-85
2023/09/09 04:52:05;;;;;;;;;;;;;;;31.63;26.59;98644.72;5064586;28;19938;-84
2023/09/09 04:54:31;;;;;;;;;;;;;;;31.53;27.15;98640.28;5074430;28;19920;-84
2023/09/09 04:56:57;;;;;;;;;;;;;;;31.70;26.57;98640.78;5070468;28;20291;-85
2023/09/09 04:59:23;;;;;;;;;;;;;;;31.63;26.84;98646.78;5086329;28;19927;-84
2023/09/09 05:01:49;;;;;;;;;;;;;;;31.75;26.71;98635.25;5084923;28;19920;-85
2023/09/09 05:04:15;;;;;;;;;;;;;;;31.65;26.96;98645.03;5086758;28;19943;-84
2023/09/09 05:06:41;;;;;;;;;;;;;;;31.43;27.33;98641.56;5085238;28;19962;-84
2023/09/09 05:09:07;;;;;;;;;;;;;;;31.39;27.23;98641.66;5082240;28;19979;-84
2023/09/09 05:11:33;;;;;;;;;;;;;;;31.46;27.80;98645.50;5082756;28;20033;-84
2023/09/09 05:13:59;;;;;;;;;;;;;;;31.83;27.33;98645.06;5086287;28;19950;-84
2023/09/09 05:16:26;;;;;;;;;;;;;;;32.13;27.39;98646.16;5090976;28;20299;-84
2023/09/09 05:18:52;;;;;;;;;;;;;;;32.34;26.95;98644.38;5082383;28;19920;-84
2023/09/09 05:21:18;;;;;;;;;;;;;;;32.15;26.93;98649.31;5090194;28;20307;-84
2023/09/09 05:23:44;;;;;;;;;;;;;;;31.87;27.59;98647.72;5082808;28;19937;-84
2023/09/09 05:26:10;;;;;;;;;;;;;;;31.84;27.95;98646.63;5078221;28;19928;-85
2023/09/09 05:28:37;;;;;;;;;;;;;;;31.99;28.35;98653.28;5079487;28;19924;-85
2023/09/09 05:31:06;;;;;;;;;;;;;;;32.14;28.58;98649.78;5076029;28;19921;-84
2023/09/09 05:33:32;;;;;;;;;;;;;;;32.03;28.34;98650.28;5074415;28;20745;-85
2023/09/09 05:35:58;;;;;;;;;;;;;;;31.77;28.90;98655.47;5079667;28;19920;-84
2023/09/09 05:38:26;;;;;;;;;;;;;;;32.02;28.71;98651.56;5079529;28;19928;-84
2023/09/09 05:40:53;;;;;;;;;;;;;;;32.19;29.19;98646.28;5085827;28;20376;-85
2023/09/09 05:43:19;;;;;;;;;;;;;;;32.21;28.96;98643.78;5086023;28;19935;-84
2023/09/09 05:45:45;;;;;;;;;;;;;;;32.39;29.29;98647.38;5088135;28;19928;-84
2023/09/09 05:48:11;;;;;;;;;;;;;;;32.50;29.54;98652.56;5090791;28;20292;-85
2023/09/09 05:50:37;;;;;;;;;;;;;;;32.48;29.76;98646.56;5095192;28;20032;-85
2023/09/09 05:53:03;;;;;;;;;;;;;;;32.34;29.45;98642.34;5093919;28;19982;-86
2023/09/09 05:55:29;;;;;;;;;;;;;;;32.17;29.64;98651.66;5093793;28;19920;-86
2023/09/09 05:57:55;;;;;;;;;;;;;;;32.12;30.53;98643.78;5086150;28;19924;-86
2023/09/09 06:00:21;;;;;;;;;;;;;;;32.20;29.97;98648.69;5084495;28;20302;-87
2023/09/09 06:02:47;;;;;;;;;;;;;;;32.41;30.24;98644.84;5088634;28;19924;-86
2023/09/09 06:05:15;;;;;;;;;;;;;;;32.48;30.82;98655.88;5091067;28;20421;-86
2023/09/09 06:07:41;;;;;;;;;;;;;;;32.48;31.15;98658.72;5092977;28;19931;-86
2023/09/09 06:10:07;;;;;;;;;;;;;;;32.58;30.64;98657.44;5091743;28;19927;-87
2023/09/09 06:12:33;;;;;;;;;;;;;;;32.69;30.68;98657.72;5088618;28;19976;-86
2023/09/09 06:14:59;;;;;;;;;;;;;;;32.86;30.96;98665.88;5082840;28;19932;-86
2023/09/09 06:17:25;;;;;;;;;;;;;;;32.96;31.10;98664.56;5086288;28;19931;-86
2023/09/09 06:19:51;;;;;;;;;;;;;;;33.08;31.32;98667.22;5083122;28;19920;-86
2023/09/09 06:22:17;;;;;;;;;;;;;;;33.29;31.20;98668.22;5085914;28;19924;-86
2023/09/09 06:24:44;;;;;;;;;;;;;;;33.48;31.24;98674.56;5088378;28;19977;-86
2023/09/09 06:27:10;;;;;;;;;;;;;;;33.61;30.96;98675.94;5084666;28;19920;-86
2023/09/09 06:29:36;;;;;;;;;;;;;;;33.69;31.16;98673.50;5091612;28;19928;-88
2023/09/09 06:32:03;;;;;;;;;;;;;;;34.02;30.06;98677.84;5092165;28;19942;-89
2023/09/09 06:34:29;;;;;;;;;;;;;;;33.75;31.48;98677.28;5092050;28;19961;-88
2023/09/09 06:36:55;;;;;;;;;;;;;;;33.49;31.01;98676.97;5093903;28;20337;-86
2023/09/09 06:39:21;;;;;;;;;;;;;;;33.42;31.53;98686.63;5092214;28;20371;-86
2023/09/09 06:41:47;;;;;;;;;;;;;;;33.69;32.05;98694.25;5092342;28;19932;-85
2023/09/09 06:44:13;;;;;;;;;;;;;;;33.98;31.33;98697.16;5092264;28;19928;-85
2023/09/09 06:46:39;;;;;;;;;;;;;;;34.68;29.88;98688.97;5093320;28;19985;-86
2023/09/09 06:49:05;;;;;;;;;;;;;;;35.06;29.15;98685.97;5090847;28;19927;-86
2023/09/09 06:51:31;;;;;;;;;;;;;;;34.95;29.71;98699.25;5090331;28;19961;-85
2023/09/09 06:53:57;;;;;;;;;;;;;;;34.92;30.63;98700.22;5089111;28;19963;-85
2023/09/09 06:56:23;;;;;;;;;;;;;;;34.35;30.77;98706.22;5090199;28;19916;-85
2023/09/09 06:58:49;;;;;;;;;;;;;;;34.11;32.17;98707.56;5088417;28;19924;-85
2023/09/09 07:01:15;;;;;;;;;;;;;;;34.30;31.41;98712.63;5091134;28;20379;-85
2023/09/09 07:03:41;;;;;;;;;;;;;;;34.98;30.55;98710.47;5091944;28;19955;-85
2023/09/09 07:06:07;;;;;;;;;;;;;;;35.63;30.57;98705.53;5089804;28;20338;-83
2023/09/09 07:08:39;;;;;;;;;;;;;;;35.95;29.20;98704.38;5088783;28;19928;-84
2023/09/09 07:11:05;;;;;;;;;;;;;;;35.56;30.60;98706.75;5085811;28;19931;-86
2023/09/09 07:13:31;;;;;;;;;;;;;;;35.40;31.22;98705.16;5087259;28;19932;-85
2023/09/09 07:15:57;;;;;;;;;;;;;;;35.52;31.12;98703.31;5067647;28;19920;-86
2023/09/09 07:18:23;;;;;;;;;;;;;;;34.84;31.45;98699.88;5068657;28;19959;-85
2023/09/09 07:20:49;;;;;;;;;;;;;;;34.95;32.00;98702.09;5084384;28;19928;-85
2023/09/09 07:23:16;;;;;;;;;;;;;;;34.84;31.20;98701.94;5083263;28;19920;-84
2023/09/09 07:25:48;;;;;;;;;;;;;;;35.08;31.30;98706.25;5088148;28;19924;-85
2023/09/09 07:28:14;;;;;;;;;;;;;;;34.51;31.95;98708.59;5090845;28;19961;-85
2023/09/09 07:30:41;;;;;;;;;;;;;;;34.29;32.81;98718.78;5075695;28;20301;-86
2023/09/09 07:33:07;;;;;;;;;;;;;;;34.50;31.32;98712.72;5088205;28;19927;-85
2023/09/09 07:35:35;;;;;;;;;;;;;;;34.50;31.72;98712.72;5088047;28;19928;-85
2023/09/09 07:38:05;;;;;;;;;;;;;;;34.35;33.04;98711.94;5088827;28;19920;-83
2023/09/09 07:40:31;;;;;;;;;;;;;;;34.20;32.77;98713.97;5071527;28;20284;-86
2023/09/09 07:42:57;;;;;;;;;;;;;;;33.92;33.66;98719.06;5088992;28;19937;-84
2023/09/09 07:45:23;;;;;;;;;;;;;;;34.90;31.14;98706.44;5085334;28;19928;-85
2023/09/09 07:47:49;;;;;;;;;;;;;;;35.80;30.19;98712.25;5085721;28;19930;-86
2023/09/09 07:50:15;;;;;;;;;;;;;;;35.42;30.96;98711.19;5081743;28;19924;-85
2023/09/09 07:52:41;;;;;;;;;;;;;;;33.94;33.05;98722.22;5082994;28;19927;-85
2023/09/09 07:55:07;;;;;;;;;;;;;;;34.26;32.09;98717.69;5090409;28;19920;-85
2023/09/09 07:57:33;;;;;;;;;;;;;;;34.65;31.76;98716.41;5085043;28;20394;-84
2023/09/09 08:00:00;;;;;;;;;;;;;;;35.13;32.28;98708.41;5085150;28;19936;-84
2023/09/09 08:02:26;;;;;;;;;;;;;;;35.86;30.52;98708.19;5068391;28;20440;-84
2023/09/09 08:04:52;;;;;;;;;;;;;;;35.46;30.56;98707.31;5071136;28;19943;-86
2023/09/09 08:07:18;;;;;;;;;;;;;;;35.34;32.52;98707.16;5092224;28;20394;-84
2023/09/09 08:09:50;;;;;;;;;;;;;;;35.80;31.15;98713.03;5080028;28;19928;-86
2023/09/09 08:12:16;;;;;;;;;;;;;;;36.05;31.32;98705.84;5090876;28;19936;-87
2023/09/09 08:14:42;;;;;;;;;;;;;;;36.53;30.11;98703.25;5081994;28;20345;-87
2023/09/09 08:17:08;;;;;;;;;;;;;;;36.18;30.73;98699.72;5085389;28;19920;-86
2023/09/09 08:19:34;;;;;;;;;;;;;;;35.94;31.11;98703.59;5081554;28;19920;-87
2023/09/09 08:22:00;;;;;;;;;;;;;;;36.47;30.59;98697.50;5087410;28;20272;-88
2023/09/09 08:24:26;;;;;;;;;;;;;;;36.97;29.85;98691.47;5074127;28;19924;-88
2023/09/09 08:26:52;;;;;;;;;;;;;;;36.40;28.81;98694.25;5089323;28;19982;-87
2023/09/09 08:29:18;;;;;;;;;;;;;;;36.45;30.46;98699.28;5089186;28;19956;-86
2023/09/09 08:31:47;;;;;;;;;;;;;;;35.57;30.71;98707.53;5079397;28;19924;-86
2023/09/09 08:34:13;;;;;;;;;;;;;;;36.11;30.58;98711.63;5079293;28;20292;-86
2023/09/09 08:36:39;;;;;;;;;;;;;;;36.84;29.31;98699.63;5083364;28;19943;-88
2023/09/09 08:39:06;;;;;;;;;;;;;;;37.22;28.25;98714.31;5082203;28;20287;-88
2023/09/09 08:41:40;;;;;;;;;;;;;;;36.39;29.34;98704.13;5065629;28;19943;-87
2023/09/09 08:44:09;;;;;;;;;;;;;;;36.30;29.81;98715.72;5077661;28;20403;-90
2023/09/09 08:46:36;;;;;;;;;;;;;;;36.26;29.80;98707.38;5086119;28;20376;-87
2023/09/09 08:49:04;;;;;;;;;;;;;;;35.99;29.82;98704.97;5078283;28;20050;-86
2023/09/09 08:51:47;;;;;;;;;;;;;;;35.33;31.07;98711.31;5083751;28;21435;-86
2023/09/09 08:54:14;;;;;;;;;;;;;;;36.16;30.86;98705.97;5091693;28;19935;-87
2023/09/09 08:56:41;;;;;;;;;;;;;;;36.92;29.18;98700.78;5085510;28;19920;-86
2023/09/09 08:59:08;;;;;;;;;;;;;;;37.00;28.01;98699.81;5079330;28;19920;-86
2023/09/09 09:01:35;;;;;;;;;;;;;;;36.06;30.03;98699.59;5079802;28;20014;-87
2023/09/09 09:04:03;;;;;;;;;;;;;;;36.00;29.48;98700.84;5081693;28;20291;-87
2023/09/09 09:06:29;;;;;;;;;;;;;;;36.19;29.13;98695.59;5082392;28;19916;-86
2023/09/09 09:08:55;;;;;;;;;;;;;;;36.16;29.18;98696.59;5080971;28;20372;-86
2023/09/09 09:11:21;;;;;;;;;;;;;;;35.02;30.78;98693.97;5076270;28;19931;-88
2023/09/09 09:13:48;;;;;;;;;;;;;;;34.75;30.55;98689.34;5091825;28;19931;-85
2023/09/09 09:16:15;;;;;;;;;;;;;;;33.18;33.36;98691.53;5088539;28;20354;-86
2023/09/09 09:18:41;;;;;;;;;;;;;;;34.58;30.96;98691.13;5089661;28;20295;-87
2023/09/09 09:21:10;;;;;;;;;;;;;;;35.69;30.16;98690.03;5091609;28;19920;-85
2023/09/09 09:23:41;;;;;;;;;;;;;;;36.36;29.18;98687.97;5091333;28;19928;-85
2023/09/09 09:26:21;;;;;;;;;;;;;;;36.99;27.58;98681.06;5089206;28;19921;-85
2023/09/09 09:28:47;;;;;;;;;;;;;;;35.90;29.25;98680.16;5080541;28;19931;-85
2023/09/09 09:31:23;;;;;;;;;;;;;;;34.65;31.21;98690.72;5083998;28;19924;-86
2023/09/09 09:33:53;;;;;;;;;;;;;;;34.82;29.59;98673.91;5081511;28;19935;-85
2023/09/09 09:36:19;;;;;;;;;;;;;;;34.50;31.05;98672.78;5083304;28;19966;-86
2023/09/09 09:38:45;;;;;;;;;;;;;;;34.48;29.21;98668.84;5084713;28;19924;-86
2023/09/09 09:41:12;;;;;;;;;;;;;;;33.70;31.13;98675.09;5062916;28;20008;-86
2023/09/09 09:43:38;;;;;;;;;;;;;;;34.35;32.27;98674.06;5087114;28;20295;-87
2023/09/09 09:46:20;;;;;;;;;;;;;;;35.58;29.80;98674.81;5069563;28;19930;-86
2023/09/09 09:48:47;;;;;;;;;;;;;;;35.70;28.37;98680.19;5081517;28;20039;-85
2023/09/09 09:51:13;;;;;;;;;;;;;;;36.31;28.77;98674.41;5078418;28;20027;-85
2023/09/09 09:53:49;;;;;;;;;;;;;;;35.04;30.60;98674.28;5083187;28;19928;-85
2023/09/09 09:56:15;;;;;;;;;;;;;;;33.84;31.50;98683.66;5085755;28;20404;-86
2023/09/09 09:58:43;;;;;;;;;;;;;;;33.69;31.58;98676.34;5085460;28;20399;-88
2023/09/09 10:01:10;;;;;;;;;;;;;;;33.86;30.51;98678.31;5088111;28;19958;-86
2023/09/09 10:03:41;;;;;;;;;;;;;;;35.96;29.68;98671.66;5084313;28;19924;-87
2023/09/09 10:06:09;;;;;;;;;;;;;;;35.83;28.92;98679.78;5086054;28;20396;-85
2023/09/09 10:08:41;;;;;;;;;;;;;;;35.43;28.08;98669.91;5086652;28;19935;-86
2023/09/09 10:11:10;;;;;;;;;;;;;;;35.37;28.54;98671.91;5087620;28;19924;-85
2023/09/09 10:13:48;;;;;;;;;;;;;;;34.52;29.33;98666.59;5088136;28;19920;-85
2023/09/09 10:16:14;;;;;;;;;;;;;;;34.92;29.95;98666.78;5087601;28;19973;-87
2023/09/09 10:18:41;;;;;;;;;;;;;;;34.55;29.88;98665.63;5089155;28;19969;-86
2023/09/09 10:21:09;;;;;;;;;;;;;;;35.67;29.56;98664.03;5090767;28;19924;-85
2023/09/09 10:23:35;;;;;;;;;;;;;;;35.00;30.14;98670.00;5092919;28;19924;-86
2023/09/09 10:26:02;;;;;;;;;;;;;;;35.58;28.89;98667.03;5095678;28;19920;-87
2023/09/09 10:28:28;;;;;;;;;;;;;;;36.69;27.20;98654.75;5090759;28;19928;-86
2023/09/09 10:30:55;;;;;;;;;;;;;;;37.00;27.25;98662.56;5087653;28;20140;-87
2023/09/09 10:33:22;;;;;;;;;;;;;;;34.90;29.80;98660.78;5088624;28;20007;-86
2023/09/09 10:35:50;;;;;;;;;;;;;;;35.79;29.24;98662.88;5090347;28;19927;-86
2023/09/09 10:38:18;;;;;;;;;;;;;;;36.80;27.33;98654.06;5092631;28;20290;-87
2023/09/09 10:40:46;;;;;;;;;;;;;;;35.65;28.54;98648.66;5093522;28;19928;-86
2023/09/09 10:43:13;;;;;;;;;;;;;;;36.18;29.74;98648.25;5090504;28;19920;-86
2023/09/09 10:45:43;;;;;;;;;;;;;;;34.64;31.30;98646.34;5089108;28;20338;-86
2023/09/09 10:48:11;;;;;;;;;;;;;;;36.71;29.80;98648.53;5091545;28;20338;-87
2023/09/09 10:50:39;;;;;;;;;;;;;;;38.03;28.05;98650.66;5090703;28;19951;-87
2023/09/09 10:53:17;;;;;;;;;;;;;;;38.49;25.93;98653.09;5091203;28;19924;-87
2023/09/09 10:55:43;;;;;;;;;;;;;;;38.79;25.79;98642.69;5088023;28;19959;-87
2023/09/09 10:58:09;;;;;;;;;;;;;;;38.37;26.00;98648.69;5092840;28;19928;-86
2023/09/09 11:00:39;;;;;;;;;;;;;;;38.13;26.64;98646.25;5088837;28;19926;-88
2023/09/09 11:03:31;;;;;;;;;;;;;;;38.86;26.32;98639.31;5089776;28;19924;-87
2023/09/09 11:06:03;;;;;;;;;;;;;;;40.01;23.90;98631.72;5068161;28;19923;-88
2023/09/09 11:08:31;;;;;;;;;;;;;;;39.84;23.76;98638.84;5090791;28;19920;-87
2023/09/09 11:11:10;;;;;;;;;;;;;;;37.89;23.79;98646.69;5089151;28;19928;-87
2023/09/09 11:13:40;;;;;;;;;;;;;;;37.71;25.46;98647.13;5090115;28;19931;-87
2023/09/09 11:16:06;;;;;;;;;;;;;;;37.32;26.00;98646.91;5091472;28;19927;-91
2023/09/09 11:18:36;;;;;;;;;;;;;;;38.28;26.13;98652.56;5088727;28;19928;-88
2023/09/09 11:21:03;;;;;;;;;;;;;;;39.17;26.32;98646.88;5086672;28;19927;-87
2023/09/09 11:23:31;;;;;;;;;;;;;;;39.13;23.58;98638.50;5090445;28;19920;-87
2023/09/09 11:25:57;;;;;;;;;;;;;;;38.76;23.95;98640.09;5072285;28;19946;-87
2023/09/09 11:28:23;;;;;;;;;;;;;;;38.93;24.42;98638.00;5091404;28;19981;-87
2023/09/09 11:30:49;;;;;;;;;;;;;;;39.66;24.30;98622.19;5086987;28;20387;-88
2023/09/09 11:33:25;;;;;;;;;;;;;;;40.48;23.35;98625.94;5085003;28;20011;-86
2023/09/09 11:35:51;;;;;;;;;;;;;;;41.02;22.08;98621.03;5088011;28;19951;-86
2023/09/09 11:38:17;;;;;;;;;;;;;;;40.22;21.62;98611.16;5091225;28;19920;-86
2023/09/09 11:40:44;;;;;;;;;;;;;;;40.11;22.13;98612.03;5087488;28;19930;-86
2023/09/09 11:43:10;;;;;;;;;;;;;;;39.05;24.23;98620.22;5084985;28;19946;-87
2023/09/09 11:45:36;;;;;;;;;;;;;;;38.87;22.69;98617.91;5087457;28;19927;-87
2023/09/09 11:48:03;;;;;;;;;;;;;;;39.43;22.44;98620.66;5090551;28;19943;-88
2023/09/09 11:50:42;;;;;;;;;;;;;;;40.12;24.97;98618.56;5071443;28;19921;-89
2023/09/09 11:53:09;;;;;;;;;;;;;;;40.44;23.43;98616.81;5089245;28;19974;-95
2023/09/09 11:55:35;;;;;;;;;;;;;;;40.85;21.66;98617.50;5090411;28;20049;-88
2023/09/09 11:58:01;;;;;;;;;;;;;;;41.29;21.98;98611.31;5067213;28;19959;-90
2023/09/09 12:00:27;;;;;;;;;;;;;;;41.42;19.46;98607.00;5087006;28;19950;-89
2023/09/09 12:02:53;;;;;;;;;;;;;;;41.40;21.07;98609.63;5073794;28;19986;-88
2023/09/09 12:05:20;;;;;;;;;;;;;;;41.63;21.72;98610.94;5093054;28;20006;-88
2023/09/09 12:07:46;;;;;;;;;;;;;;;41.77;20.10;98604.72;5089401;28;19927;-87
2023/09/09 12:10:14;;;;;;;;;;;;;;;41.97;20.10;98601.28;5088519;28;19952;-89
2023/09/09 12:12:41;;;;;;;;;;;;;;;42.10;20.50;98606.41;5085795;28;19924;-90
2023/09/09 12:15:08;;;;;;;;;;;;;;;42.21;19.75;98603.34;5083575;28;19958;-89
2023/09/09 12:17:35;;;;;;;;;;;;;;;42.17;20.36;98602.09;5089718;28;19927;-85
2023/09/09 12:20:04;;;;;;;;;;;;;;;41.46;22.38;98590.94;5091122;28;20375;-88
2023/09/09 12:22:35;;;;;;;;;;;;;;;41.86;19.55;98595.69;5082721;28;19924;-89
2023/09/09 12:25:05;;;;;;;;;;;;;;;40.88;20.14;98590.53;5085892;28;20003;-87
2023/09/09 12:27:45;;;;;;;;;;;;;;;40.34;20.35;98593.28;5090968;28;19920;-87
2023/09/09 12:30:29;;;;;;;;;;;;;;;39.59;22.76;98591.88;5086735;28;19923;-87
2023/09/09 12:32:55;;;;;;;;;;;;;;;39.33;22.39;98600.06;5090731;28;19963;-86
2023/09/09 12:35:21;;;;;;;;;;;;;;;38.88;22.93;98587.88;5087270;28;19948;-86
2023/09/09 12:37:47;;;;;;;;;;;;;;;38.51;23.67;98593.13;5086643;28;19924;-86
2023/09/09 12:40:14;;;;;;;;;;;;;;;39.21;21.67;98584.94;5067752;28;19927;-85
2023/09/09 12:42:40;;;;;;;;;;;;;;;38.98;23.98;98586.28;5087430;28;19928;-86
2023/09/09 12:45:09;;;;;;;;;;;;;;;39.66;21.40;98587.66;5088519;28;19970;-88
2023/09/09 12:47:35;;;;;;;;;;;;;;;39.92;21.04;98588.84;5089450;28;19987;-88